Time;durP1;ratioP1;P1;durP2;ratioP2;P2;SDS_P1;SDS_P2;PMS_P1;PMS_P2;Temp;Humidity;BMP_temperature;BMP_pressure;BME280_temperature;BME280_humidity;BME280_pressure;Samples;Min_cycle;Max_cycle;Signal;HPM_P1;HPM_P2
2022/12/03 00:00:03;;;;;;;;;;;18.90;59.80;;;;;;5057774;28;1898;-70
2022/12/03 00:02:29;;;;;;;;;;;18.90;59.80;;;;;;5057764;28;785;-70
2022/12/03 00:04:54;;;;;;;;;;;18.90;59.80;;;;;;5057705;28;872;-70
2022/12/03 00:07:20;;;;;;;;;;;18.80;59.80;;;;;;5057942;28;888;-70
2022/12/03 00:09:45;;;;;;;;;;;18.80;59.80;;;;;;5038231;28;1463;-70
2022/12/03 00:12:10;;;;;;;;;;;18.80;59.90;;;;;;5059162;28;862;-70
2022/12/03 00:14:36;;;;;;;;;;;18.80;59.90;;;;;;5061103;28;1378;-70
2022/12/03 00:17:01;;;;;;;;;;;18.80;59.90;;;;;;5057566;28;899;-70
2022/12/03 00:19:27;;;;;;;;;;;18.80;59.90;;;;;;5058829;28;1271;-70
2022/12/03 00:21:52;;;;;;;;;;;18.80;59.90;;;;;;5060540;28;2006;-70
2022/12/03 00:24:18;;;;;;;;;;;18.80;59.90;;;;;;5056208;28;1066;-70
2022/12/03 00:26:43;;;;;;;;;;;18.80;59.90;;;;;;5057704;28;860;-70
2022/12/03 00:29:10;;;;;;;;;;;18.80;59.90;;;;;;5057791;28;1302;-70
2022/12/03 00:31:35;;;;;;;;;;;18.80;60.00;;;;;;5058609;28;828;-69
2022/12/03 00:34:01;;;;;;;;;;;18.80;59.90;;;;;;5055723;28;826;-70
2022/12/03 00:36:26;;;;;;;;;;;18.80;60.00;;;;;;5056390;28;890;-70
2022/12/03 00:38:51;;;;;;;;;;;18.80;60.00;;;;;;5057168;28;1251;-70
2022/12/03 00:41:17;;;;;;;;;;;18.80;60.10;;;;;;5056411;28;1910;-70
2022/12/03 00:43:42;;;;;;;;;;;18.80;60.00;;;;;;5055162;28;911;-70
2022/12/03 00:46:08;;;;;;;;;;;18.80;60.10;;;;;;5055729;28;1156;-70
2022/12/03 00:48:33;;;;;;;;;;;18.80;60.00;;;;;;5060050;28;1334;-70
2022/12/03 00:50:59;;;;;;;;;;;18.80;60.10;;;;;;5059324;28;875;-70
2022/12/03 00:53:24;;;;;;;;;;;18.80;60.10;;;;;;5059499;28;959;-70
2022/12/03 00:55:50;;;;;;;;;;;18.80;60.10;;;;;;5058541;28;897;-70
2022/12/03 00:58:16;;;;;;;;;;;18.80;60.20;;;;;;5053646;28;1358;-70
2022/12/03 01:00:41;;;;;;;;;;;18.80;60.20;;;;;;5047628;28;1914;-70
2022/12/03 01:03:07;;;;;;;;;;;18.70;60.10;;;;;;5061280;28;909;-70
2022/12/03 01:05:32;;;;;;;;;;;18.80;60.20;;;;;;5061250;28;898;-70
2022/12/03 01:07:58;;;;;;;;;;;18.70;60.10;;;;;;5062126;28;879;-70
2022/12/03 01:10:23;;;;;;;;;;;18.70;60.10;;;;;;5060273;28;1230;-70
2022/12/03 01:12:49;;;;;;;;;;;18.70;60.10;;;;;;5059387;28;1306;-69
2022/12/03 01:15:14;;;;;;;;;;;18.70;60.20;;;;;;5060962;28;933;-70
2022/12/03 01:17:40;;;;;;;;;;;18.70;60.20;;;;;;5060700;28;848;-70
2022/12/03 01:20:06;;;;;;;;;;;18.70;60.20;;;;;;5057862;28;1902;-70
2022/12/03 01:22:31;;;;;;;;;;;18.70;60.20;;;;;;5040359;28;978;-69
2022/12/03 01:24:56;;;;;;;;;;;18.70;60.30;;;;;;5059523;28;1208;-70
2022/12/03 01:27:22;;;;;;;;;;;18.70;60.20;;;;;;5059999;28;1066;-70
2022/12/03 01:29:47;;;;;;;;;;;18.70;60.30;;;;;;5061318;28;1366;-70
2022/12/03 01:32:16;;;;;;;;;;;18.70;60.30;;;;;;5047450;28;884;-70
2022/12/03 01:34:42;;;;;;;;;;;18.70;60.30;;;;;;5058990;28;848;-70
2022/12/03 01:37:08;;;;;;;;;;;18.70;60.30;;;;;;5057877;28;852;-70
2022/12/03 01:39:33;;;;;;;;;;;18.70;60.30;;;;;;5060094;28;1399;-70
2022/12/03 01:41:59;;;;;;;;;;;18.70;60.30;;;;;;5060521;28;1959;-70
2022/12/03 01:44:25;;;;;;;;;;;18.70;60.30;;;;;;5059867;28;812;-70
2022/12/03 01:46:51;;;;;;;;;;;18.70;60.30;;;;;;5060761;28;850;-70
2022/12/03 01:49:20;;;;;;;;;;;18.70;60.30;;;;;;5060855;28;1350;-70
2022/12/03 01:51:45;;;;;;;;;;;18.70;60.30;;;;;;5052079;28;907;-70
2022/12/03 01:54:18;;;;;;;;;;;18.70;61.00;;;;;;5039957;28;828;-70
2022/12/03 01:56:44;;;;;;;;;;;18.70;60.20;;;;;;5039579;28;967;-70
2022/12/03 01:59:14;;;;;;;;;;;18.80;60.30;;;;;;5040114;28;1241;-70
2022/12/03 02:01:39;;;;;;;;;;;18.80;60.20;;;;;;5051951;28;1955;-70
2022/12/03 02:04:04;;;;;;;;;;;18.80;60.20;;;;;;5057229;28;1081;-70
2022/12/03 02:06:30;;;;;;;;;;;18.70;60.20;;;;;;5058929;28;998;-70
2022/12/03 02:08:58;;;;;;;;;;;18.80;60.20;;;;;;5059028;28;1345;-70
2022/12/03 02:11:26;;;;;;;;;;;18.70;60.20;;;;;;5060309;28;934;-70
2022/12/03 02:13:53;;;;;;;;;;;18.70;60.20;;;;;;5056084;28;1399;-70
2022/12/03 02:16:18;;;;;;;;;;;18.70;60.20;;;;;;5038777;28;903;-70
2022/12/03 02:18:44;;;;;;;;;;;18.70;60.20;;;;;;5055186;28;1247;-70
2022/12/03 02:21:12;;;;;;;;;;;18.70;60.20;;;;;;5044362;28;1894;-70
2022/12/03 02:23:58;;;;;;;;;;;18.80;60.20;;;;;;5058432;28;1387;-70
2022/12/03 02:26:23;;;;;;;;;;;18.70;60.20;;;;;;5056836;28;964;-70
2022/12/03 02:28:49;;;;;;;;;;;18.70;60.20;;;;;;5055911;28;1311;-70
2022/12/03 02:31:14;;;;;;;;;;;18.70;60.20;;;;;;5061548;28;1069;-70
2022/12/03 02:33:40;;;;;;;;;;;18.70;60.20;;;;;;5051438;28;953;-70
2022/12/03 02:36:05;;;;;;;;;;;18.70;60.20;;;;;;5058727;28;843;-70
2022/12/03 02:38:31;;;;;;;;;;;18.70;60.20;;;;;;5041948;28;1351;-70
2022/12/03 02:40:57;;;;;;;;;;;18.70;60.20;;;;;;5042836;28;1957;-70
2022/12/03 02:43:23;;;;;;;;;;;18.70;61.00;;;;;;5039793;28;1535;-70
2022/12/03 02:45:49;;;;;;;;;;;18.70;60.20;;;;;;5037570;28;1549;-70
2022/12/03 02:48:15;;;;;;;;;;;18.70;60.30;;;;;;5035911;28;1350;-70
2022/12/03 02:50:42;;;;;;;;;;;18.70;60.30;;;;;;5038474;28;804;-70
2022/12/03 02:53:08;;;;;;;;;;;18.70;60.30;;;;;;5059951;28;811;-70
2022/12/03 02:55:34;;;;;;;;;;;18.70;60.30;;;;;;5040637;28;902;-70
2022/12/03 02:57:59;;;;;;;;;;;18.70;60.30;;;;;;5039976;28;860;-70
2022/12/03 03:00:24;;;;;;;;;;;18.70;60.40;;;;;;5035846;28;1902;-70
2022/12/03 03:02:50;;;;;;;;;;;18.70;60.40;;;;;;5038673;28;1105;-70
2022/12/03 03:05:16;;;;;;;;;;;18.70;60.40;;;;;;5058220;28;1658;-70
2022/12/03 03:07:42;;;;;;;;;;;18.70;60.30;;;;;;5059484;28;1261;-70
2022/12/03 03:10:08;;;;;;;;;;;18.70;60.40;;;;;;5058096;28;1281;-70
2022/12/03 03:12:33;;;;;;;;;;;18.70;60.40;;;;;;5059306;28;1109;-70
2022/12/03 03:14:59;;;;;;;;;;;18.70;60.40;;;;;;5046302;28;1298;-70
2022/12/03 03:17:24;;;;;;;;;;;18.70;60.40;;;;;;5057793;28;884;-70
2022/12/03 03:19:50;;;;;;;;;;;18.70;60.40;;;;;;5060161;28;1390;-70
2022/12/03 03:22:15;;;;;;;;;;;18.70;60.30;;;;;;5056273;28;1955;-70
2022/12/03 03:24:41;;;;;;;;;;;18.70;60.40;;;;;;5038513;28;966;-70
2022/12/03 03:27:06;;;;;;;;;;;18.70;60.30;;;;;;5053444;28;799;-70
2022/12/03 03:29:49;;;;;;;;;;;18.70;60.30;;;;;;5041104;28;1295;-70
2022/12/03 03:32:15;;;;;;;;;;;18.70;60.30;;;;;;5059670;28;907;-70
2022/12/03 03:34:40;;;;;;;;;;;18.70;60.30;;;;;;5059068;28;1097;-70
2022/12/03 03:37:06;;;;;;;;;;;18.70;60.30;;;;;;5058991;28;864;-70
2022/12/03 03:39:31;;;;;;;;;;;18.70;60.20;;;;;;5059121;28;1275;-70
2022/12/03 03:41:57;;;;;;;;;;;18.70;60.30;;;;;;5041447;28;1934;-69
2022/12/03 03:44:22;;;;;;;;;;;18.70;60.30;;;;;;5042711;28;875;-69
2022/12/03 03:46:48;;;;;;;;;;;18.70;60.30;;;;;;5040113;28;942;-70
2022/12/03 03:49:13;;;;;;;;;;;18.70;60.30;;;;;;5054941;28;1335;-70
2022/12/03 03:51:38;;;;;;;;;;;18.70;60.30;;;;;;5041604;28;939;-70
2022/12/03 03:54:04;;;;;;;;;;;18.70;60.30;;;;;;5038515;28;831;-70
2022/12/03 03:56:30;;;;;;;;;;;18.70;60.30;;;;;;5040654;28;1031;-70
2022/12/03 03:58:55;;;;;;;;;;;18.70;60.30;;;;;;5040440;28;1260;-69
2022/12/03 04:01:21;;;;;;;;;;;18.70;60.30;;;;;;5058531;28;1953;-70
2022/12/03 04:03:47;;;;;;;;;;;18.70;60.30;;;;;;5060562;28;861;-69
2022/12/03 04:06:12;;;;;;;;;;;18.70;60.30;;;;;;5056664;28;1224;-70
2022/12/03 04:08:38;;;;;;;;;;;18.70;60.30;;;;;;5056776;28;1365;-70
2022/12/03 04:13:47;;;;;;;;;;;18.70;60.30;;;;;;5061887;28;1325;-70
2022/12/03 04:16:12;;;;;;;;;;;18.70;60.40;;;;;;5060782;28;748;-70
2022/12/03 04:18:44;;;;;;;;;;;18.70;60.30;;;;;;5057949;28;1271;-70
2022/12/03 04:23:54;;;;;;;;;;;18.70;60.40;;;;;;5042495;28;896;-70
2022/12/03 04:29:03;;;;;;;;;;;18.60;60.40;;;;;;5059405;28;1303;-70
2022/12/03 04:36:57;;;;;;;;;;;18.60;60.40;;;;;;5045175;28;776;-69
2022/12/03 04:39:22;;;;;;;;;;;18.60;60.40;;;;;;5062506;28;1270;-70
2022/12/03 04:41:48;;;;;;;;;;;18.70;60.50;;;;;;5059562;28;1906;-70
2022/12/03 04:47:06;;;;;;;;;;;18.70;60.50;;;;;;5064416;28;792;-70
2022/12/03 04:49:32;;;;;;;;;;;18.60;60.40;;;;;;5068266;28;1666;-69
2022/12/03 04:51:58;;;;;;;;;;;18.60;60.40;;;;;;5043800;28;823;-70
2022/12/03 04:54:23;;;;;;;;;;;18.70;60.40;;;;;;5047634;28;816;-70
2022/12/03 04:56:49;;;;;;;;;;;18.60;60.40;;;;;;5057277;28;1055;-70
2022/12/03 04:59:14;;;;;;;;;;;18.70;60.50;;;;;;5041699;28;1235;-70
2022/12/03 05:01:40;;;;;;;;;;;18.60;60.40;;;;;;5061607;28;1956;-70
2022/12/03 05:04:05;;;;;;;;;;;18.70;60.50;;;;;;5059930;28;896;-70
2022/12/03 05:06:31;;;;;;;;;;;18.60;60.40;;;;;;5060706;28;894;-70
2022/12/03 05:08:56;;;;;;;;;;;18.70;60.40;;;;;;5059452;28;1361;-70
2022/12/03 05:11:22;;;;;;;;;;;18.70;60.40;;;;;;5061953;28;852;-70
2022/12/03 05:13:47;;;;;;;;;;;18.70;60.40;;;;;;5063458;28;1198;-70
2022/12/03 05:16:12;;;;;;;;;;;18.70;60.40;;;;;;5060789;28;875;-70
2022/12/03 05:18:38;;;;;;;;;;;18.70;60.30;;;;;;5058906;28;1395;-70
2022/12/03 05:21:03;;;;;;;;;;;18.70;60.20;;;;;;5061875;28;1965;-69
2022/12/03 05:23:29;;;;;;;;;;;18.80;60.20;;;;;;5057689;28;892;-69
2022/12/03 05:25:54;;;;;;;;;;;18.80;60.20;;;;;;5059421;28;891;-70
2022/12/03 05:28:22;;;;;;;;;;;18.80;60.10;;;;;;5045076;28;1344;-69
2022/12/03 05:30:47;;;;;;;;;;;18.80;60.00;;;;;;5059216;28;840;-69
2022/12/03 05:33:12;;;;;;;;;;;18.80;59.90;;;;;;5044385;28;1156;-69
2022/12/03 05:35:38;;;;;;;;;;;18.80;59.90;;;;;;5062456;28;817;-70
2022/12/03 05:38:03;;;;;;;;;;;18.90;59.80;;;;;;5042597;28;872;-70
2022/12/03 05:40:29;;;;;;;;;;;18.90;59.80;;;;;;5058984;28;1898;-69
2022/12/03 05:42:59;;;;;;;;;;;18.90;59.70;;;;;;5056839;28;938;-70
2022/12/03 05:45:25;;;;;;;;;;;18.90;59.70;;;;;;5043735;28;923;-70
2022/12/03 05:47:51;;;;;;;;;;;18.90;59.60;;;;;;5058606;28;847;-68
2022/12/03 05:50:17;;;;;;;;;;;19.00;59.60;;;;;;5061747;28;2637;-68
2022/12/03 05:52:42;;;;;;;;;;;19.00;59.60;;;;;;5044423;28;1553;-69
2022/12/03 05:55:08;;;;;;;;;;;19.00;59.60;;;;;;5062031;28;871;-69
2022/12/03 05:57:33;;;;;;;;;;;19.00;59.60;;;;;;5058876;28;905;-68
2022/12/03 05:59:59;;;;;;;;;;;19.00;59.50;;;;;;5055703;28;1232;-68
2022/12/03 06:02:24;;;;;;;;;;;19.00;59.50;;;;;;5060350;28;1961;-68
2022/12/03 06:04:50;;;;;;;;;;;19.00;59.50;;;;;;5062832;28;1003;-69
2022/12/03 06:07:15;;;;;;;;;;;19.00;59.50;;;;;;5058086;28;844;-69
2022/12/03 06:09:41;;;;;;;;;;;19.00;59.50;;;;;;5063660;28;1249;-69
2022/12/03 06:12:09;;;;;;;;;;;19.10;59.40;;;;;;5060186;28;871;-68
2022/12/03 06:14:34;;;;;;;;;;;19.20;59.20;;;;;;5061668;28;1270;-68
2022/12/03 06:17:00;;;;;;;;;;;19.30;59.20;;;;;;5061137;28;943;-68
2022/12/03 06:19:26;;;;;;;;;;;19.50;59.10;;;;;;5065687;28;1381;-69
2022/12/03 06:21:51;;;;;;;;;;;19.60;58.90;;;;;;5062095;28;1905;-70
2022/12/03 06:24:16;;;;;;;;;;;19.80;58.70;;;;;;5060104;28;931;-70
2022/12/03 06:26:42;;;;;;;;;;;19.90;58.40;;;;;;5058031;28;800;-70
2022/12/03 06:29:08;;;;;;;;;;;20.00;58.10;;;;;;5055735;28;1277;-69
2022/12/03 06:31:33;;;;;;;;;;;20.10;57.90;;;;;;5058022;28;933;-69
2022/12/03 06:33:59;;;;;;;;;;;20.30;57.60;;;;;;5062966;28;943;-69
2022/12/03 06:36:26;;;;;;;;;;;20.40;57.40;;;;;;5058667;28;899;-70
2022/12/03 06:38:52;;;;;;;;;;;20.50;57.10;;;;;;5061454;28;1270;-70
2022/12/03 06:41:17;;;;;;;;;;;20.60;56.90;;;;;;5043581;28;1961;-69
2022/12/03 06:43:43;;;;;;;;;;;20.70;56.70;;;;;;5056766;28;1053;-68
2022/12/03 06:46:08;;;;;;;;;;;20.70;56.40;;;;;;5060019;28;819;-69
2022/12/03 06:48:34;;;;;;;;;;;20.80;56.30;;;;;;5056589;28;1278;-69
2022/12/03 06:50:59;;;;;;;;;;;20.80;56.10;;;;;;5043582;28;1192;-69
2022/12/03 06:53:25;;;;;;;;;;;20.90;56.00;;;;;;5058432;28;840;-69
2022/12/03 06:55:50;;;;;;;;;;;20.90;55.90;;;;;;5059267;28;928;-69
2022/12/03 06:58:15;;;;;;;;;;;20.90;55.90;;;;;;5065157;28;1363;-69
2022/12/03 07:00:41;;;;;;;;;;;20.90;55.80;;;;;;5056939;28;1914;-69
2022/12/03 07:03:06;;;;;;;;;;;21.00;55.90;;;;;;5057562;28;852;-69
2022/12/03 07:05:32;;;;;;;;;;;21.00;55.90;;;;;;5056490;28;843;-69
2022/12/03 07:07:57;;;;;;;;;;;20.90;56.00;;;;;;5061332;28;912;-69
2022/12/03 07:10:23;;;;;;;;;;;20.90;55.90;;;;;;5057694;28;1333;-69
2022/12/03 07:12:48;;;;;;;;;;;20.90;56.00;;;;;;5060136;28;1261;-69
2022/12/03 07:15:13;;;;;;;;;;;20.90;56.00;;;;;;5057069;28;1288;-69
2022/12/03 07:17:39;;;;;;;;;;;20.90;56.10;;;;;;5056270;28;812;-69
2022/12/03 07:20:05;;;;;;;;;;;20.90;56.10;;;;;;5060668;28;1906;-69
2022/12/03 07:22:30;;;;;;;;;;;20.90;56.10;;;;;;5059705;28;1509;-69
2022/12/03 07:24:56;;;;;;;;;;;20.90;56.20;;;;;;5061377;28;1313;-69
2022/12/03 07:27:21;;;;;;;;;;;20.90;56.20;;;;;;5059706;28;950;-69
2022/12/03 07:29:47;;;;;;;;;;;20.90;56.20;;;;;;5057292;28;1295;-69
2022/12/03 07:32:12;;;;;;;;;;;20.80;56.20;;;;;;5054538;28;935;-69
2022/12/03 07:34:37;;;;;;;;;;;20.80;56.20;;;;;;5061648;28;1014;-69
2022/12/03 07:37:03;;;;;;;;;;;20.80;56.30;;;;;;5058870;28;890;-69
2022/12/03 07:39:28;;;;;;;;;;;20.80;56.30;;;;;;5057664;28;1262;-69
2022/12/03 07:41:54;;;;;;;;;;;20.80;56.30;;;;;;5056363;28;1949;-70
2022/12/03 07:44:19;;;;;;;;;;;20.80;56.40;;;;;;5057943;28;816;-70
2022/12/03 07:46:45;;;;;;;;;;;20.70;56.40;;;;;;5060245;28;919;-70
2022/12/03 07:49:11;;;;;;;;;;;20.70;56.40;;;;;;5040996;28;1338;-70
2022/12/03 07:51:36;;;;;;;;;;;20.70;56.50;;;;;;5045323;28;1220;-70
2022/12/03 07:54:02;;;;;;;;;;;20.70;57.20;;;;;;5040383;28;1131;-70
2022/12/03 07:56:27;;;;;;;;;;;20.70;56.60;;;;;;5058459;28;1962;-70
2022/12/03 07:58:53;;;;;;;;;;;20.60;56.50;;;;;;5065459;28;1360;-70
2022/12/03 08:01:18;;;;;;;;;;;20.60;56.70;;;;;;5066725;28;2187;-70
2022/12/03 08:03:44;;;;;;;;;;;20.60;56.70;;;;;;5055127;28;1304;-70
2022/12/03 08:06:09;;;;;;;;;;;20.60;56.70;;;;;;5069129;28;853;-70
2022/12/03 08:08:35;;;;;;;;;;;20.60;56.80;;;;;;5055207;28;1353;-70
2022/12/03 08:11:00;;;;;;;;;;;20.50;56.80;;;;;;5059452;28;862;-69
2022/12/03 08:13:26;;;;;;;;;;;20.50;56.80;;;;;;5060210;28;1381;-70
2022/12/03 08:15:52;;;;;;;;;;;20.50;57.10;;;;;;5044314;28;1238;-70
2022/12/03 08:18:18;;;;;;;;;;;20.50;57.40;;;;;;5040886;28;1602;-69
2022/12/03 08:20:44;;;;;;;;;;;20.50;57.70;;;;;;5061838;28;1961;-69
2022/12/03 08:23:22;;;;;;;;;;;20.50;58.00;;;;;;5040080;28;1325;-69
2022/12/03 08:25:48;;;;;;;;;;;20.50;58.20;;;;;;5039526;28;903;-69
2022/12/03 08:28:15;;;;;;;;;;;20.50;58.30;;;;;;5057851;28;1315;-69
2022/12/03 08:30:43;;;;;;;;;;;20.50;58.40;;;;;;5057753;28;1305;-69
2022/12/03 08:33:14;;;;;;;;;;;20.50;58.40;;;;;;5040420;28;879;-69
2022/12/03 08:35:40;;;;;;;;;;;20.50;58.40;;;;;;5038302;28;1479;-70
2022/12/03 08:38:09;;;;;;;;;;;20.50;58.50;;;;;;5056818;28;919;-70
2022/12/03 08:40:35;;;;;;;;;;;20.50;58.70;;;;;;5060553;28;1953;-69
2022/12/03 08:43:01;;;;;;;;;;;20.50;58.70;;;;;;5033974;28;895;-69
2022/12/03 08:45:26;;;;;;;;;;;20.50;58.70;;;;;;5059772;28;1070;-70
2022/12/03 08:47:55;;;;;;;;;;;20.50;58.70;;;;;;5058899;28;840;-69
2022/12/03 08:50:31;;;;;;;;;;;20.50;58.70;;;;;;5041142;28;1291;-69
2022/12/03 08:53:07;;;;;;;;;;;20.50;58.70;;;;;;5039456;28;1086;-69
2022/12/03 08:55:33;;;;;;;;;;;20.50;58.80;;;;;;5040296;28;834;-70
2022/12/03 08:57:58;;;;;;;;;;;20.50;58.70;;;;;;5048606;28;863;-69
2022/12/03 09:00:24;;;;;;;;;;;20.40;58.70;;;;;;5037584;28;1979;-70
2022/12/03 09:02:50;;;;;;;;;;;20.50;58.80;;;;;;5058581;28;1244;-69
2022/12/03 09:05:18;;;;;;;;;;;20.40;58.80;;;;;;5056876;28;1313;-70
2022/12/03 09:07:43;;;;;;;;;;;20.40;58.80;;;;;;5057629;28;840;-70
2022/12/03 09:10:08;;;;;;;;;;;20.40;58.80;;;;;;5058306;28;1356;-69
2022/12/03 09:12:34;;;;;;;;;;;20.40;58.90;;;;;;5055002;28;1345;-70
2022/12/03 09:14:59;;;;;;;;;;;20.40;58.90;;;;;;5059926;28;1055;-70
2022/12/03 09:17:25;;;;;;;;;;;20.40;59.00;;;;;;5053209;28;905;-69
2022/12/03 09:19:51;;;;;;;;;;;20.40;59.10;;;;;;5054611;28;1320;-70
2022/12/03 09:22:17;;;;;;;;;;;20.50;59.10;;;;;;5059029;28;1973;-70
2022/12/03 09:24:42;;;;;;;;;;;20.40;59.10;;;;;;5060203;28;1013;-69
2022/12/03 09:27:08;;;;;;;;;;;20.40;59.10;;;;;;5044667;28;927;-69
2022/12/03 09:29:33;;;;;;;;;;;20.40;59.00;;;;;;5064098;28;1213;-69
2022/12/03 09:31:58;;;;;;;;;;;20.40;59.00;;;;;;5062453;28;836;-69
2022/12/03 09:34:24;;;;;;;;;;;20.40;59.00;;;;;;5061471;28;970;-70
2022/12/03 09:36:49;;;;;;;;;;;20.40;59.00;;;;;;5041402;28;1042;-69
2022/12/03 09:39:15;;;;;;;;;;;20.40;59.10;;;;;;5065141;28;1393;-69
2022/12/03 09:41:40;;;;;;;;;;;20.40;59.10;;;;;;5064772;28;1884;-69
2022/12/03 09:44:06;;;;;;;;;;;20.40;59.20;;;;;;5059452;28;832;-70
2022/12/03 09:46:32;;;;;;;;;;;20.40;59.20;;;;;;5042101;28;900;-69
2022/12/03 09:48:58;;;;;;;;;;;20.40;59.30;;;;;;5062797;28;1430;-69
2022/12/03 09:51:24;;;;;;;;;;;20.40;59.40;;;;;;5041060;28;1695;-70
2022/12/03 09:53:50;;;;;;;;;;;20.40;59.40;;;;;;5040830;28;946;-70
2022/12/03 09:56:18;;;;;;;;;;;20.40;59.30;;;;;;5040166;28;892;-69
2022/12/03 09:58:43;;;;;;;;;;;20.40;59.40;;;;;;5053045;28;1350;-70
2022/12/03 10:01:12;;;;;;;;;;;20.40;59.50;;;;;;5040327;28;1910;-69
2022/12/03 10:03:38;;;;;;;;;;;20.40;59.40;;;;;;5060731;28;878;-70
2022/12/03 10:06:03;;;;;;;;;;;20.40;59.50;;;;;;5057064;28;959;-69
2022/12/03 10:08:29;;;;;;;;;;;20.40;59.40;;;;;;5060505;28;1340;-69
2022/12/03 10:10:55;;;;;;;;;;;20.40;59.50;;;;;;5064155;28;812;-69
2022/12/03 10:13:22;;;;;;;;;;;20.40;59.60;;;;;;5063291;28;1385;-69
2022/12/03 10:15:48;;;;;;;;;;;20.40;59.60;;;;;;5059380;28;1568;-69
2022/12/03 10:18:26;;;;;;;;;;;20.40;59.60;;;;;;5061654;28;1346;-69
2022/12/03 10:20:52;;;;;;;;;;;20.40;59.60;;;;;;5042339;28;1906;-69
2022/12/03 10:23:24;;;;;;;;;;;20.40;59.60;;;;;;5026902;28;1359;-69
2022/12/03 10:25:51;;;;;;;;;;;20.40;59.70;;;;;;5056862;28;918;-69
2022/12/03 10:28:25;;;;;;;;;;;20.40;59.60;;;;;;5057717;28;1363;-70
2022/12/03 10:30:56;;;;;;;;;;;20.40;59.70;;;;;;5058270;28;919;-70
2022/12/03 10:33:27;;;;;;;;;;;20.40;59.70;;;;;;5039705;28;935;-69
2022/12/03 10:35:52;;;;;;;;;;;20.40;59.80;;;;;;5037993;28;818;-69
2022/12/03 10:38:18;;;;;;;;;;;20.40;59.80;;;;;;5059051;28;1323;-69
2022/12/03 10:40:44;;;;;;;;;;;20.40;59.80;;;;;;5043969;28;2267;-69
2022/12/03 10:43:13;;;;;;;;;;;20.40;59.80;;;;;;5042744;28;910;-69
2022/12/03 10:45:38;;;;;;;;;;;20.40;59.80;;;;;;5058067;28;823;-70
2022/12/03 10:48:10;;;;;;;;;;;20.40;59.80;;;;;;5058121;28;1010;-69
2022/12/03 10:50:35;;;;;;;;;;;20.30;59.80;;;;;;5058721;28;1401;-69
2022/12/03 10:53:01;;;;;;;;;;;20.40;59.90;;;;;;5063056;28;770;-69
2022/12/03 10:55:27;;;;;;;;;;;20.30;60.00;;;;;;5053470;28;855;-69
2022/12/03 10:57:53;;;;;;;;;;;20.30;60.00;;;;;;5060749;28;939;-70
2022/12/03 11:00:18;;;;;;;;;;;20.30;60.10;;;;;;5061808;28;2134;-70
2022/12/03 11:02:44;;;;;;;;;;;20.40;60.10;;;;;;5037436;28;1438;-70
2022/12/03 11:05:14;;;;;;;;;;;20.30;60.30;;;;;;5051285;28;1271;-69
2022/12/03 11:07:39;;;;;;;;;;;20.40;60.20;;;;;;5064045;28;1335;-69
2022/12/03 11:10:05;;;;;;;;;;;20.40;61.20;;;;;;5063486;28;1339;-69
2022/12/03 11:12:33;;;;;;;;;;;20.40;60.20;;;;;;5038670;28;1349;-69
2022/12/03 11:15:05;;;;;;;;;;;20.40;60.30;;;;;;5059236;28;1297;-69
2022/12/03 11:17:45;;;;;;;;;;;20.40;60.20;;;;;;5058250;28;835;-69
2022/12/03 11:20:23;;;;;;;;;;;20.40;60.10;;;;;;5062741;28;1359;-70
2022/12/03 11:22:52;;;;;;;;;;;20.40;60.30;;;;;;5061103;28;832;-69
2022/12/03 11:25:23;;;;;;;;;;;20.40;60.30;;;;;;5042078;28;1034;-70
2022/12/03 11:28:07;;;;;;;;;;;20.40;60.20;;;;;;5057700;28;875;-70
2022/12/03 11:30:48;;;;;;;;;;;20.40;60.30;;;;;;5058994;28;1270;-70
2022/12/03 11:33:29;;;;;;;;;;;20.40;60.30;;;;;;5058874;28;1286;-69
2022/12/03 11:36:03;;;;;;;;;;;20.40;60.20;;;;;;5053409;28;915;-70
2022/12/03 11:38:32;;;;;;;;;;;20.40;60.30;;;;;;5059495;28;1348;-69
2022/12/03 11:41:10;;;;;;;;;;;20.40;60.40;;;;;;5056841;28;1914;-70
2022/12/03 11:43:50;;;;;;;;;;;20.40;60.50;;;;;;5056224;28;851;-70
2022/12/03 11:46:16;;;;;;;;;;;20.40;60.30;;;;;;5058011;28;903;-70
2022/12/03 11:48:42;;;;;;;;;;;20.40;60.20;;;;;;5049111;28;1290;-70
2022/12/03 11:51:11;;;;;;;;;;;20.30;60.30;;;;;;5041552;28;1058;-70
2022/12/03 11:53:36;;;;;;;;;;;20.40;60.40;;;;;;5039570;28;2255;-70
2022/12/03 11:56:07;;;;;;;;;;;20.30;60.40;;;;;;5042585;28;1390;-70
2022/12/03 11:58:42;;;;;;;;;;;20.30;60.50;;;;;;5059312;28;1282;-70
2022/12/03 12:01:07;;;;;;;;;;;20.30;60.40;;;;;;5060214;28;1906;-71
2022/12/03 12:03:33;;;;;;;;;;;20.30;60.60;;;;;;5038285;28;875;-70
2022/12/03 12:06:08;;;;;;;;;;;20.30;60.50;;;;;;5057862;28;903;-71
2022/12/03 12:08:34;;;;;;;;;;;20.30;60.60;;;;;;5039024;28;1235;-70
2022/12/03 12:11:00;;;;;;;;;;;20.30;60.80;;;;;;5041516;28;985;-70
2022/12/03 12:13:29;;;;;;;;;;;20.30;60.70;;;;;;5049438;28;1337;-70
2022/12/03 12:15:54;;;;;;;;;;;20.30;60.70;;;;;;5056501;28;833;-70
2022/12/03 12:18:38;;;;;;;;;;;20.30;60.80;;;;;;5056748;28;1354;-70
2022/12/03 12:21:22;;;;;;;;;;;20.30;60.60;;;;;;5056166;28;1897;-69
2022/12/03 12:23:47;;;;;;;;;;;20.30;60.50;;;;;;5058643;28;907;-70
2022/12/03 12:26:13;;;;;;;;;;;20.40;60.60;;;;;;5058081;28;1022;-70
2022/12/03 12:28:38;;;;;;;;;;;20.40;60.40;;;;;;5039094;28;1563;-70
2022/12/03 12:31:09;;;;;;;;;;;20.40;60.40;;;;;;5057700;28;946;-69
2022/12/03 12:33:34;;;;;;;;;;;20.40;60.40;;;;;;5039412;28;1442;-69
2022/12/03 12:36:03;;;;;;;;;;;20.40;60.50;;;;;;5059078;28;872;-68
2022/12/03 12:38:29;;;;;;;;;;;20.40;60.40;;;;;;5040104;28;1272;-68
2022/12/03 12:40:54;;;;;;;;;;;20.40;60.60;;;;;;5056287;28;1955;-67
2022/12/03 12:43:22;;;;;;;;;;;20.40;60.90;;;;;;5040605;28;958;-68
2022/12/03 12:45:48;;;;;;;;;;;20.40;60.70;;;;;;5039995;28;871;-68
2022/12/03 12:48:13;;;;;;;;;;;20.40;60.90;;;;;;5039036;28;1302;-68
2022/12/03 12:50:42;;;;;;;;;;;20.40;60.90;;;;;;5055625;28;867;-68
2022/12/03 12:53:26;;;;;;;;;;;20.40;60.80;;;;;;5056564;28;828;-68
2022/12/03 12:55:56;;;;;;;;;;;20.40;60.70;;;;;;5053768;28;935;-68
2022/12/03 12:58:21;;;;;;;;;;;20.40;60.60;;;;;;5061963;28;1442;-67
2022/12/03 13:00:51;;;;;;;;;;;20.40;60.70;;;;;;5061471;28;1914;-68
2022/12/03 13:03:17;;;;;;;;;;;20.40;60.70;;;;;;5060586;28;970;-67
2022/12/03 13:05:43;;;;;;;;;;;20.40;59.10;;;;;;5053464;28;958;-67
2022/12/03 13:08:15;;;;;;;;;;;20.30;55.40;;;;;;5064681;28;1053;-70
2022/12/03 13:10:42;;;;;;;;;;;20.20;51.70;;;;;;5042842;28;819;-70
2022/12/03 13:13:14;;;;;;;;;;;20.10;52.30;;;;;;5060437;28;989;-70
2022/12/03 13:15:39;;;;;;;;;;;20.10;53.10;;;;;;5057834;28;911;-69
2022/12/03 13:18:09;;;;;;;;;;;20.10;54.00;;;;;;5063098;28;2041;-70
2022/12/03 13:20:35;;;;;;;;;;;20.00;54.40;;;;;;5050320;28;1914;-68
2022/12/03 13:23:01;;;;;;;;;;;20.00;54.70;;;;;;5051896;28;892;-69
2022/12/03 13:25:33;;;;;;;;;;;20.00;55.30;;;;;;5045293;28;824;-68
2022/12/03 13:27:58;;;;;;;;;;;20.00;55.70;;;;;;5053750;28;906;-68
2022/12/03 13:30:25;;;;;;;;;;;20.00;56.00;;;;;;5058798;28;1309;-69
2022/12/03 13:32:51;;;;;;;;;;;19.90;56.20;;;;;;5054173;28;1072;-68
2022/12/03 13:35:28;;;;;;;;;;;19.90;56.60;;;;;;5057757;28;928;-69
2022/12/03 13:37:54;;;;;;;;;;;19.90;56.60;;;;;;5059169;28;835;-69
2022/12/03 13:40:23;;;;;;;;;;;19.90;56.80;;;;;;5061814;28;1949;-69
2022/12/03 13:42:48;;;;;;;;;;;19.90;56.90;;;;;;5042389;28;836;-68
2022/12/03 13:45:14;;;;;;;;;;;19.90;57.10;;;;;;5043230;28;924;-69
2022/12/03 13:47:43;;;;;;;;;;;19.90;57.20;;;;;;5059273;28;903;-69
2022/12/03 13:50:19;;;;;;;;;;;19.80;57.30;;;;;;5050797;28;1243;-68
2022/12/03 13:52:44;;;;;;;;;;;19.90;58.00;;;;;;5053792;28;883;-68
2022/12/03 13:55:09;;;;;;;;;;;19.80;57.40;;;;;;5063304;28;943;-69
2022/12/03 13:57:35;;;;;;;;;;;19.80;57.60;;;;;;5056763;28;1022;-68
2022/12/03 14:00:00;;;;;;;;;;;19.80;57.60;;;;;;5064856;28;1256;-68
2022/12/03 14:02:26;;;;;;;;;;;19.80;57.70;;;;;;5059076;28;1902;-68
2022/12/03 14:04:51;;;;;;;;;;;19.80;57.80;;;;;;5058052;28;1013;-68
2022/12/03 14:07:17;;;;;;;;;;;19.80;57.80;;;;;;5058831;28;1021;-68
2022/12/03 14:09:42;;;;;;;;;;;19.80;57.90;;;;;;5059188;28;1260;-69
2022/12/03 14:12:26;;;;;;;;;;;19.80;57.90;;;;;;5062629;28;1858;-68
2022/12/03 14:14:52;;;;;;;;;;;19.80;58.00;;;;;;5065274;28;1411;-68
2022/12/03 14:17:17;;;;;;;;;;;19.80;58.10;;;;;;5061177;28;1381;-68
2022/12/03 14:19:43;;;;;;;;;;;19.80;58.20;;;;;;5066279;28;1486;-68
2022/12/03 14:22:08;;;;;;;;;;;19.70;58.10;;;;;;5044890;28;2029;-68
2022/12/03 14:24:34;;;;;;;;;;;19.70;58.20;;;;;;5067602;28;1192;-68
2022/12/03 14:27:00;;;;;;;;;;;19.70;58.20;;;;;;5058765;28;940;-68
2022/12/03 14:29:25;;;;;;;;;;;19.70;58.30;;;;;;5041353;28;1229;-68
2022/12/03 14:31:51;;;;;;;;;;;19.70;58.40;;;;;;5059281;28;903;-69
2022/12/03 14:34:16;;;;;;;;;;;19.70;58.40;;;;;;5060432;28;1014;-69
2022/12/03 14:36:43;;;;;;;;;;;19.70;58.40;;;;;;5060755;28;864;-69
2022/12/03 14:39:08;;;;;;;;;;;19.70;58.50;;;;;;5060794;28;1270;-69
2022/12/03 14:44:20;;;;;;;;;;;19.60;58.50;;;;;;5063184;28;745;-69
2022/12/03 14:46:46;;;;;;;;;;;19.60;58.60;;;;;;5060777;28;902;-69
2022/12/03 14:49:11;;;;;;;;;;;19.60;58.60;;;;;;5060097;28;1365;-68
2022/12/03 14:51:37;;;;;;;;;;;19.60;58.70;;;;;;5060700;28;1050;-69